Time;durP1;ratioP1;P1;durP2;ratioP2;P2;SDS_P1;SDS_P2;PMS_P1;PMS_P2;Temp;Humidity;BMP_temperature;BMP_pressure;BME280_temperature;BME280_humidity;BME280_pressure;Samples;Min_cycle;Max_cycle;Signal;HPM_P1;HPM_P2
2021/08/21 00:01:47;;;;;;;5.82;4.47;;;;;;;17.93;76.35;100488.09;5020858;28;20105;-76
2021/08/21 00:04:20;;;;;;;5.13;3.70;;;;;;;17.93;76.18;100482.56;5015081;28;20030;-75
2021/08/21 00:06:46;;;;;;;3.88;3.58;;;;;;;17.97;75.69;100485.50;5015707;28;20030;-73
2021/08/21 00:09:13;;;;;;;5.70;5.32;;;;;;;18.00;76.08;100486.84;4998526;28;20029;-73
2021/08/21 00:11:40;;;;;;;6.05;5.45;;;;;;;17.96;76.53;100492.19;5005232;28;20056;-73
2021/08/21 00:14:06;;;;;;;5.82;5.35;;;;;;;18.02;75.96;100484.56;5005645;28;20044;-73
2021/08/21 00:16:32;;;;;;;6.32;5.82;;;;;;;17.96;76.60;100476.41;5003811;28;20474;-74
2021/08/21 00:18:59;;;;;;;4.45;4.05;;;;;;;18.00;76.48;100464.72;5008137;28;20378;-74
2021/08/21 00:21:25;;;;;;;4.78;4.38;;;;;;;18.05;76.57;100467.34;5005641;28;20376;-73
2021/08/21 00:23:51;;;;;;;5.47;5.10;;;;;;;18.02;76.44;100463.28;4998399;28;20446;-74
2021/08/21 00:26:17;;;;;;;5.25;4.82;;;;;;;18.03;76.53;100464.06;5002968;28;20025;-74
2021/08/21 00:28:44;;;;;;;5.32;4.15;;;;;;;18.06;76.78;100474.50;5002438;28;20046;-75
2021/08/21 00:31:10;;;;;;;4.45;4.25;;;;;;;18.07;76.62;100467.84;5003473;28;20022;-73
2021/08/21 00:33:36;;;;;;;3.17;2.97;;;;;;;18.09;76.35;100460.03;5021689;28;20399;-74
2021/08/21 00:36:02;;;;;;;3.20;3.05;;;;;;;18.15;76.05;100469.88;5007276;28;20403;-75
2021/08/21 00:38:30;;;;;;;4.65;4.45;;;;;;;18.17;76.13;100469.56;5020498;28;20038;-75
2021/08/21 00:40:55;;;;;;;4.47;4.18;;;;;;;18.18;76.36;100460.94;5004232;28;20034;-75
2021/08/21 00:43:22;;;;;;;4.68;4.38;;;;;;;18.20;76.53;100466.94;4990896;28;20041;-74
2021/08/21 00:45:48;;;;;;;4.40;4.20;;;;;;;18.26;75.77;100464.88;5004813;28;20480;-74
2021/08/21 00:48:15;;;;;;;4.05;3.90;;;;;;;18.24;76.40;100462.41;5010786;28;20033;-75
2021/08/21 00:50:43;;;;;;;6.25;5.35;;;;;;;18.21;76.07;100460.28;5019478;28;20048;-73
2021/08/21 00:53:09;;;;;;;5.53;5.13;;;;;;;18.17;75.92;100459.28;4985267;28;20041;-74
2021/08/21 00:55:35;;;;;;;6.10;5.50;;;;;;;18.21;75.90;100454.75;5018014;28;20030;-75
2021/08/21 00:58:01;;;;;;;6.15;5.60;;;;;;;18.22;76.39;100461.91;5003857;28;20613;-74
2021/08/21 01:00:27;;;;;;;4.10;3.85;;;;;;;18.20;75.86;100452.31;5002120;28;20044;-74
2021/08/21 01:02:55;;;;;;;2.97;2.78;;;;;;;18.23;75.82;100452.47;4986481;28;20033;-75
2021/08/21 01:05:21;;;;;;;3.15;3.05;;;;;;;18.23;76.07;100449.72;5020003;28;20017;-75
2021/08/21 01:07:47;;;;;;;4.95;4.65;;;;;;;18.19;76.37;100451.47;4994297;28;20026;-76
2021/08/21 01:10:16;;;;;;;5.45;4.45;;;;;;;18.16;76.26;100443.00;5015339;28;20025;-76
2021/08/21 01:12:47;;;;;;;4.80;4.40;;;;;;;18.16;76.27;100446.56;5005656;28;20029;-74
2021/08/21 01:15:13;;;;;;;5.22;4.93;;;;;;;18.09;76.45;100444.28;5005397;28;20038;-75
2021/08/21 01:17:39;;;;;;;4.10;3.70;;;;;;;18.08;76.42;100441.81;4988340;28;20040;-75
2021/08/21 01:20:09;;;;;;;6.10;5.43;;;;;;;18.09;76.54;100441.50;5019865;28;20029;-75
2021/08/21 01:22:35;;;;;;;4.13;3.92;;;;;;;18.11;76.29;100455.03;5030815;28;20499;-74
2021/08/21 01:25:03;;;;;;;2.47;2.38;;;;;;;18.06;76.19;100441.31;5030715;28;20081;-74
2021/08/21 01:27:33;;;;;;;3.28;3.10;;;;;;;18.03;76.17;100437.22;4999851;28;20038;-73
2021/08/21 01:29:59;;;;;;;4.07;3.78;;;;;;;18.12;76.23;100445.56;5021060;28;20025;-73
2021/08/21 01:32:26;;;;;;;3.80;3.50;;;;;;;18.11;76.50;100443.94;5027490;28;20053;-74
2021/08/21 01:34:53;;;;;;;3.47;3.17;;;;;;;18.08;76.59;100439.06;5023984;28;20041;-74
2021/08/21 01:37:22;;;;;;;2.95;2.78;;;;;;;18.08;75.98;100436.28;5041830;28;20033;-76
2021/08/21 01:39:50;;;;;;;4.10;3.80;;;;;;;18.08;75.86;100439.06;4993544;28;20053;-75
2021/08/21 01:42:16;;;;;;;4.60;4.20;;;;;;;18.03;75.89;100430.88;5006224;28;20049;-75
2021/08/21 01:44:45;;;;;;;5.72;5.28;;;;;;;17.99;76.44;100429.88;5008350;28;20548;-75
2021/08/21 01:47:12;;;;;;;3.85;3.65;;;;;;;17.91;76.29;100426.72;5018126;28;20034;-74
2021/08/21 01:50:00;;;;;;;3.17;3.00;;;;;;;17.88;76.78;100423.75;5004916;28;20107;-74
2021/08/21 01:52:29;;;;;;;4.35;3.88;;;;;;;17.84;75.95;100415.25;5003460;28;20378;-74
2021/08/21 01:54:54;;;;;;;3.53;3.22;;;;;;;17.82;76.42;100413.97;5040157;28;20323;-74
2021/08/21 01:57:20;;;;;;;2.65;2.55;;;;;;;17.79;76.56;100412.63;5036419;28;20037;-73
2021/08/21 01:59:47;;;;;;;3.33;3.13;;;;;;;17.87;76.58;100419.34;5041391;28;20026;-75
2021/08/21 02:02:25;;;;;;;3.65;2.92;;;;;;;17.85;76.73;100408.59;5038580;28;20029;-73
2021/08/21 02:04:50;;;;;;;3.40;3.20;;;;;;;17.79;76.40;100416.22;5030455;28;20426;-75
2021/08/21 02:07:16;;;;;;;3.90;3.70;;;;;;;17.79;76.25;100402.38;4996490;28;20060;-74
2021/08/21 02:09:42;;;;;;;4.57;4.28;;;;;;;17.85;76.76;100413.31;5038278;28;20033;-74
2021/08/21 02:12:08;;;;;;;3.95;3.75;;;;;;;17.87;76.13;100408.28;5007280;28;20044;-74
2021/08/21 02:14:36;;;;;;;3.10;2.88;;;;;;;17.81;75.92;100396.53;4997473;28;20022;-75
2021/08/21 02:17:05;;;;;;;5.72;5.32;;;;;;;17.80;75.92;100394.91;5021418;28;20053;-74
2021/08/21 02:19:34;;;;;;;5.97;5.53;;;;;;;17.82;76.27;100414.78;4992964;28;20030;-75
2021/08/21 02:22:05;;;;;;;5.38;5.07;;;;;;;17.72;76.26;100395.66;5035259;28;20021;-74
2021/08/21 02:24:36;;;;;;;5.60;5.25;;;;;;;17.68;76.48;100392.69;5008661;28;20112;-74
2021/08/21 02:27:04;;;;;;;5.40;5.05;;;;;;;17.70;76.39;100397.94;5021819;28;20021;-74
2021/08/21 02:29:30;;;;;;;3.90;3.70;;;;;;;17.66;76.37;100394.16;4991361;28;20483;-75
2021/08/21 02:32:07;;;;;;;5.63;3.45;;;;;;;17.73;76.66;100403.66;5005450;28;20052;-75
2021/08/21 02:34:35;;;;;;;4.88;4.22;;;;;;;17.63;76.42;100385.34;5040414;28;20478;-74
2021/08/21 02:37:01;;;;;;;5.70;5.30;;;;;;;17.69;76.49;100388.00;4989898;28;20568;-75
2021/08/21 02:39:36;;;;;;;;;;;;;;;;;;;;;
2021/08/21 02:42:02;;;;;;;2.30;2.20;;;;;;;17.75;76.46;100386.72;5022153;28;20108;-73
2021/08/21 02:44:28;;;;;;;1.95;1.85;;;;;;;17.82;76.46;100392.63;5019715;28;20056;-73
2021/08/21 02:46:53;;;;;;;1.95;1.85;;;;;;;17.80;76.22;100373.59;5034351;28;20021;-76
2021/08/21 02:49:19;;;;;;;2.50;2.40;;;;;;;17.88;76.07;100385.84;5030582;28;20025;-72
2021/08/21 02:51:46;;;;;;;3.08;2.88;;;;;;;17.83;76.17;100394.28;5033481;28;20025;-73
2021/08/21 02:54:18;;;;;;;3.95;3.80;;;;;;;17.81;76.47;100388.22;5039564;28;20033;-74
2021/08/21 02:56:43;;;;;;;4.65;2.45;;;;;;;17.86;76.51;100384.50;5038009;28;20026;-74
2021/08/21 02:59:12;;;;;;;3.55;3.25;;;;;;;17.89;76.33;100387.47;5023613;28;20420;-74
2021/08/21 03:01:38;;;;;;;1.42;1.42;;;;;;;17.93;76.34;100382.16;5033363;28;20110;-74
2021/08/21 03:04:03;;;;;;;2.75;2.63;;;;;;;17.93;75.80;100374.69;5031467;28;20065;-75
2021/08/21 03:06:29;;;;;;;2.00;1.90;;;;;;;17.99;76.30;100380.06;5013724;28;20427;-75
2021/08/21 03:08:56;;;;;;;2.20;2.10;;;;;;;18.01;76.00;100372.28;5023568;28;20112;-73
2021/08/21 03:11:22;;;;;;;2.67;2.58;;;;;;;18.09;75.65;100390.88;5005729;28;20065;-73
2021/08/21 03:13:53;;;;;;;4.30;4.00;;;;;;;18.03;75.83;100370.81;5037020;28;20109;-74
2021/08/21 03:16:18;;;;;;;4.57;4.28;;;;;;;18.05;75.58;100389.88;5022004;28;20018;-74
2021/08/21 03:18:44;;;;;;;3.60;3.40;;;;;;;17.95;75.73;100386.25;5021535;28;20037;-74
2021/08/21 03:21:14;;;;;;;2.80;2.70;;;;;;;17.99;75.93;100388.38;5027072;28;20036;-74
2021/08/21 03:23:40;;;;;;;2.42;2.33;;;;;;;17.94;76.43;100384.59;5040578;28;20028;-74
2021/08/21 03:26:13;;;;;;;5.15;3.92;;;;;;;17.96;76.20;100379.59;5024001;28;20029;-74
2021/08/21 03:28:38;;;;;;;4.10;3.90;;;;;;;17.94;76.34;100373.53;5022722;28;20025;-74
2021/08/21 03:31:04;;;;;;;3.70;3.60;;;;;;;17.92;75.61;100366.69;5022887;28;20103;-73
2021/08/21 03:33:30;;;;;;;6.13;5.72;;;;;;;17.88;76.06;100369.25;5041322;28;20053;-73
2021/08/21 03:35:55;;;;;;;5.38;5.15;;;;;;;17.88;75.84;100362.91;5009284;28;20463;-73
2021/08/21 03:38:23;;;;;;;3.67;3.47;;;;;;;17.93;76.12;100365.56;5016678;28;20399;-72
2021/08/21 03:40:49;;;;;;;4.88;4.43;;;;;;;17.94;76.40;100364.44;5002551;28;20451;-73
2021/08/21 03:43:14;;;;;;;4.05;3.85;;;;;;;17.90;76.14;100361.50;5021366;28;20052;-73
2021/08/21 03:45:41;;;;;;;3.95;3.65;;;;;;;17.93;75.96;100355.31;5021079;28;20025;-72
2021/08/21 03:48:11;;;;;;;3.35;3.15;;;;;;;17.95;75.87;100355.81;5016347;28;20014;-74
2021/08/21 03:50:39;;;;;;;4.88;4.60;;;;;;;17.95;75.64;100364.09;5033224;28;20031;-73
2021/08/21 03:53:04;;;;;;;3.13;3.03;;;;;;;17.96;76.19;100360.22;5034695;28;20416;-73
2021/08/21 03:55:30;;;;;;;3.38;3.17;;;;;;;17.96;75.96;100360.22;5039548;28;20112;-73
2021/08/21 03:57:55;;;;;;;3.70;3.47;;;;;;;17.97;75.82;100363.78;5006028;28;20025;-74
2021/08/21 04:00:21;;;;;;;4.82;4.53;;;;;;;17.95;75.96;100363.31;5037618;28;20537;-72
2021/08/21 04:02:46;;;;;;;4.15;3.88;;;;;;;17.94;76.02;100350.59;5034148;28;20051;-73
2021/08/21 04:05:11;;;;;;;3.35;3.10;;;;;;;17.93;75.69;100349.78;5034229;28;21325;-73
2021/08/21 04:07:37;;;;;;;3.25;2.95;;;;;;;17.95;75.72;100355.81;5034092;28;20033;-75
2021/08/21 04:10:07;;;;;;;2.75;2.55;;;;;;;17.95;75.57;100350.28;5042691;28;20046;-73
2021/08/21 04:12:55;;;;;;;4.07;3.75;;;;;;;17.95;75.62;100353.03;5037083;28;20041;-74
2021/08/21 04:16:10;;;;;;;2.55;2.35;;;;;;;17.92;76.12;100337.09;4972332;28;20108;-74
2021/08/21 04:22:02;;;;;;;3.95;3.65;;;;;;;17.94;75.91;100356.13;5017055;28;20111;-73
2021/08/21 04:32:30;;;;;;;2.70;2.35;;;;;;;17.98;75.28;100356.31;5011935;28;20161;-73
2021/08/21 04:34:55;;;;;;;2.08;1.98;;;;;;;17.94;75.82;100358.88;5010217;28;20116;-72
2021/08/21 04:37:22;;;;;;;1.30;1.30;;;;;;;17.98;75.39;100351.59;4997810;28;20046;-72
2021/08/21 04:39:47;;;;;;;1.20;1.13;;;;;;;17.98;75.80;100350.78;4996918;28;20358;-73
2021/08/21 04:42:13;;;;;;;1.42;1.33;;;;;;;18.00;74.96;100348.50;5016744;28;20037;-72
2021/08/21 04:44:39;;;;;;;1.90;1.02;;;;;;;18.02;75.78;100349.84;5012574;28;20037;-72
2021/08/21 04:47:11;;;;;;;0.85;0.85;;;;;;;18.03;75.65;100343.16;4996650;28;20118;-72
2021/08/21 04:49:36;;;;;;;1.27;1.17;;;;;;;18.04;75.21;100341.22;4979972;28;20041;-73
2021/08/21 04:52:18;;;;;;;1.13;1.13;;;;;;;18.03;75.53;100336.81;4977636;28;20030;-72
2021/08/21 04:54:51;;;;;;;1.40;1.35;;;;;;;17.98;74.94;100331.44;5499628;23;20103;-72
2021/08/21 04:57:20;;;;;;;0.93;0.93;;;;;;;17.95;74.83;100325.38;5035555;28;20033;-74
2021/08/21 05:03:12;;;;;;;1.58;1.25;;;;;;;17.97;74.97;100322.28;4976641;28;20095;-73
2021/08/21 05:05:37;;;;;;;1.38;1.38;;;;;;;17.94;75.08;100306.34;5040472;28;20061;-74
2021/08/21 05:08:03;;;;;;;0.65;0.65;;;;;;;17.91;75.25;100307.78;5054315;28;20041;-73
2021/08/21 05:10:29;;;;;;;0.85;0.85;;;;;;;17.91;74.90;100313.31;5053341;28;20680;-73
2021/08/21 05:12:54;;;;;;;1.05;1.05;;;;;;;17.91;74.90;100312.50;5054213;28;20017;-74
2021/08/21 05:15:20;;;;;;;1.10;1.10;;;;;;;17.88;74.91;100311.16;5023712;28;20045;-72
2021/08/21 05:17:48;;;;;;;0.77;0.77;;;;;;;17.89;74.52;100315.56;5027030;28;20056;-73
2021/08/21 05:21:05;;;;;;;1.27;1.27;;;;;;;17.86;74.88;100305.13;5022581;28;20029;-72
2021/08/21 05:23:13;;;;;;;0.70;0.70;;;;;;;17.87;74.93;100317.84;5037057;28;20033;-73
2021/08/21 05:25:40;;;;;;;1.00;0.95;;;;;;;17.80;74.68;100314.72;5021773;28;20391;-72
2021/08/21 05:28:06;;;;;;;0.85;0.75;;;;;;;17.80;74.84;100306.41;5049432;28;20056;-73
2021/08/21 05:30:38;;;;;;;0.70;0.70;;;;;;;17.80;75.00;100306.41;5024728;28;20424;-73
2021/08/21 05:33:09;;;;;;;0.68;0.68;;;;;;;17.79;74.39;100310.31;5055398;28;20025;-72
2021/08/21 05:35:34;;;;;;;0.65;0.65;;;;;;;17.79;74.95;100315.84;5054762;28;20430;-73
2021/08/21 05:38:00;;;;;;;0.60;0.60;;;;;;;17.79;74.69;100310.31;5039080;28;20032;-73
2021/08/21 05:40:26;;;;;;;0.60;0.60;;;;;;;17.81;74.12;100313.56;5055055;28;20036;-74
2021/08/21 05:42:51;;;;;;;0.55;0.55;;;;;;;17.83;74.45;100316.84;5043145;28;20033;-72
2021/08/21 05:45:17;;;;;;;0.82;0.52;;;;;;;17.85;74.05;100313.75;5057654;28;20088;-72
2021/08/21 05:47:42;;;;;;;0.50;0.50;;;;;;;17.86;74.40;100321.72;5039284;28;20053;-72
2021/08/21 05:57:26;;;;;;;;;;;;;;;;;;;;;
2021/08/21 05:59:52;;;;;;;0.17;0.15;;;;;;;17.83;73.59;100316.84;5057689;28;20084;-74
2021/08/21 06:02:17;;;;;;;0.30;0.30;;;;;;;17.85;74.06;100311.00;5057771;28;20075;-74
2021/08/21 06:04:43;;;;;;;0.20;0.20;;;;;;;17.89;73.59;100318.31;5019044;28;20048;-73
2021/08/21 06:07:08;;;;;;;0.40;0.40;;;;;;;17.92;73.36;100330.75;5045395;28;20029;-72
2021/08/21 06:09:33;;;;;;;0.30;0.30;;;;;;;17.92;73.44;100341.81;5054983;28;20461;-72
2021/08/21 06:11:59;;;;;;;0.20;0.20;;;;;;;17.89;73.87;100332.16;5034630;28;20024;-73
2021/08/21 06:14:24;;;;;;;0.17;0.17;;;;;;;17.92;73.57;100334.31;5003538;28;20471;-72
2021/08/21 06:16:50;;;;;;;0.30;0.30;;;;;;;17.93;73.17;100333.19;5035365;28;20037;-72
2021/08/21 06:19:15;;;;;;;0.28;0.28;;;;;;;17.96;73.27;100327.03;5045639;28;20032;-74
2021/08/21 06:21:44;;;;;;;0.10;0.10;;;;;;;17.99;73.14;100324.75;5043123;28;20028;-73
2021/08/21 06:24:10;;;;;;;0.30;0.30;;;;;;;18.02;73.34;100336.00;5058956;28;20032;-72
2021/08/21 06:26:36;;;;;;;0.35;0.30;;;;;;;18.05;72.99;100329.03;5041744;28;20459;-73
2021/08/21 06:29:01;;;;;;;0.20;0.20;;;;;;;18.06;72.87;100330.63;5032490;28;20048;-73
2021/08/21 06:31:27;;;;;;;0.17;0.17;;;;;;;18.08;73.25;100325.63;5059859;28;20422;-74
2021/08/21 06:33:59;;;;;;;0.40;0.40;;;;;;;18.11;72.97;100325.78;5048425;28;20030;-72
2021/08/21 06:36:25;;;;;;;0.90;0.90;;;;;;;18.12;72.97;100329.34;5009270;28;20087;-74
2021/08/21 06:38:50;;;;;;;0.55;0.55;;;;;;;18.12;72.71;100318.28;5017323;28;20470;-73
2021/08/21 06:41:16;;;;;;;0.55;0.55;;;;;;;18.16;72.56;100318.47;5041480;28;20025;-73
2021/08/21 06:43:41;;;;;;;0.50;0.50;;;;;;;18.22;72.53;100315.22;5036946;28;20120;-74
2021/08/21 06:46:10;;;;;;;0.63;0.63;;;;;;;18.25;72.80;100328.44;5041921;28;20017;-77
2021/08/21 06:48:35;;;;;;;0.50;0.50;;;;;;;18.33;72.92;100346.22;5005506;28;20041;-74
2021/08/21 06:51:01;;;;;;;0.40;0.40;;;;;;;18.37;72.82;100346.38;5067991;28;20094;-78
2021/08/21 06:53:43;;;;;;;1.60;0.70;;;;;;;18.44;73.16;100335.66;5027409;28;20106;-77
2021/08/21 06:56:09;;;;;;;0.40;0.40;;;;;;;18.44;72.76;100330.94;5044800;28;20029;-78
2021/08/21 06:59:11;;;;;;;0.50;0.50;;;;;;;18.44;73.06;100319.03;5011826;28;20060;-79
2021/08/21 07:01:38;;;;;;;0.70;0.70;;;;;;;18.51;73.01;100322.16;5023412;28;20498;-75
2021/08/21 07:04:04;;;;;;;0.60;0.60;;;;;;;18.56;72.98;100316.47;5041668;28;20029;-75
2021/08/21 07:06:34;;;;;;;0.43;0.40;;;;;;;18.70;72.34;100327.41;5031251;28;20030;-78
2021/08/21 07:09:04;;;;;;;1.17;0.52;;;;;;;18.75;72.49;100323.66;5039796;28;20028;-73
2021/08/21 07:11:30;;;;;;;0.45;0.45;;;;;;;18.78;72.64;100311.97;5027871;28;20033;-73
2021/08/21 07:14:04;;;;;;;0.40;0.40;;;;;;;18.90;72.51;100314.13;5010575;28;20089;-77
2021/08/21 07:16:29;;;;;;;0.50;0.50;;;;;;;18.96;72.02;100308.06;5043790;28;20452;-76
2021/08/21 07:19:11;;;;;;;0.50;0.50;;;;;;;19.03;72.22;100307.59;5058840;28;20044;-76
2021/08/21 07:21:37;;;;;;;0.70;0.70;;;;;;;19.08;71.82;100304.66;5066156;28;20068;-74
2021/08/21 07:24:10;;;;;;;0.60;0.60;;;;;;;19.15;71.59;100304.97;5030916;28;20036;-76
2021/08/21 07:26:41;;;;;;;2.95;1.30;;;;;;;19.20;71.46;100306.75;5027369;28;20114;-75
2021/08/21 07:29:14;;;;;;;0.73;0.70;;;;;;;19.14;71.04;100308.91;5027714;28;20025;-79
2021/08/21 07:31:42;;;;;;;0.93;0.60;;;;;;;19.13;71.21;100306.47;5017805;28;20063;-76
2021/08/21 07:37:29;;;;;;;;;;;;;;;19.29;70.70;100303.97;4980376;28;20055;-77
2021/08/21 07:46:23;;;;;;;0.63;0.63;;;;;;;19.13;69.99;100289.84;4945499;29;20109;-77
2021/08/21 08:10:00;;;;;;;1.67;0.90;;;;;;;19.12;69.77;100307.59;4822994;29;20083;-77
2021/08/21 08:20:02;;;;;;;0.70;0.60;;;;;;;19.21;69.78;100310.34;4837606;29;20435;-77
2021/08/21 08:25:59;;;;;;;1.08;0.70;;;;;;;19.16;69.33;100306.59;4895694;29;20080;-72
2021/08/21 08:29:14;;;;;;;0.43;0.43;;;;;;;19.21;69.31;100308.41;4900804;29;20068;-75
2021/08/21 08:32:02;;;;;;;0.55;0.55;;;;;;;19.21;69.44;100313.94;4871539;29;20044;-74
2021/08/21 08:34:52;;;;;;;0.52;0.52;;;;;;;19.15;68.85;100320.78;4897457;29;20526;-74
2021/08/21 08:38:18;;;;;;;1.38;0.73;;;;;;;19.10;68.76;100309.84;4927218;29;20054;-74
2021/08/21 08:41:28;;;;;;;0.70;0.60;;;;;;;19.06;68.70;100295.03;4942220;28;20042;-73
2021/08/21 08:44:45;;;;;;;;;;;;;;;;;;;;;
2021/08/21 08:47:01;;;;;;;0.45;0.45;;;;;;;19.12;69.34;100324.22;5009730;28;20033;-74
2021/08/21 08:49:28;;;;;;;1.08;0.98;;;;;;;19.07;68.67;100314.13;5032537;28;20082;-74
2021/08/21 08:52:58;;;;;;;;;;;;;;;;;;;;;
2021/08/21 09:02:41;;;;;;;0.70;0.60;;;;;;;18.92;69.38;100284.91;4975590;28;20121;-77
2021/08/21 09:05:42;;;;;;;;;;;;;;;;;;;;;
2021/08/21 09:08:35;;;;;;;0.40;0.40;;;;;;;19.07;69.10;100299.44;5016738;28;20056;-77
2021/08/21 09:11:24;;;;;;;0.20;0.20;;;;;;;19.02;69.22;100284.59;5019523;28;20037;-76
2021/08/21 09:17:44;;;;;;;0.22;0.22;;;;;;;18.94;69.07;100277.13;4998441;28;20379;-77
2021/08/21 09:20:25;;;;;;;;;;;;;;;;;;;;;
2021/08/21 09:27:12;;;;;;;0.30;0.30;;;;;;;19.15;68.97;100304.16;5028512;28;20029;-75
2021/08/21 09:30:18;;;;;;;;;;;;;;;;;;;;;
2021/08/21 09:32:47;;;;;;;0.35;0.35;;;;;;;19.11;69.14;100303.19;4987568;28;20094;-77
2021/08/21 09:38:49;;;;;;;;;;;;;;;;;;;;;
2021/08/21 09:42:05;;;;;;;0.65;0.45;;;;;;;18.93;69.92;100325.34;4944988;29;19967;-76
2021/08/21 09:45:35;;;;;;;;;;;;;;;;;;;;;
2021/08/21 09:48:53;;;;;;;;;;;;;;;;;;;;;
2021/08/21 09:55:09;;;;;;;0.47;0.47;;;;;;;18.81;70.04;100294.69;4914159;29;20272;-77
2021/08/21 09:58:34;;;;;;;0.30;0.30;;;;;;;18.98;70.11;100311.34;4955322;28;20043;-76
2021/08/21 10:01:04;;;;;;;0.70;0.50;;;;;;;18.93;70.27;100291.28;4927980;29;20059;-77
2021/08/21 10:03:37;;;;;;;0.22;0.20;;;;;;;19.12;70.20;100321.44;4948086;29;20032;-77
2021/08/21 10:06:21;;;;;;;0.65;0.43;;;;;;;19.25;70.26;100326.00;4926809;29;20088;-75
2021/08/21 10:12:13;;;;;;;0.30;0.30;;;;;;;19.31;70.55;100294.19;4907803;29;20043;-77
2021/08/21 10:15:15;;;;;;;;;;;;;;;;;;;;;
2021/08/21 10:18:02;;;;;;;0.40;0.40;;;;;;;19.59;70.52;100304.91;4979303;28;20099;-76
2021/08/21 10:20:59;;;;;;;0.32;0.25;;;;;;;19.63;69.79;100302.31;4994812;28;20077;-74
2021/08/21 10:23:28;;;;;;;0.60;0.60;;;;;;;19.60;70.19;100287.13;5043429;28;20028;-76
2021/08/21 10:26:10;;;;;;;0.60;0.60;;;;;;;19.75;69.92;100284.97;5042225;28;20116;-75
2021/08/21 10:28:43;;;;;;;0.57;0.57;;;;;;;19.76;69.35;100281.06;5059054;28;20029;-75
2021/08/21 10:31:39;;;;;;;3.20;0.65;;;;;;;19.91;69.39;100286.06;5040565;28;20084;-76
2021/08/21 10:35:00;;;;;;;;;;;;;;;;;;;;;
2021/08/21 10:41:04;;;;;;;0.50;0.50;;;;;;;20.11;69.39;100281.75;4989303;28;20106;-75
2021/08/21 10:43:52;;;;;;;0.47;0.20;;;;;;;20.29;68.96;100295.53;5022050;28;20069;-74
2021/08/21 10:46:49;;;;;;;;;;;;;;;;;;;;;
2021/08/21 10:50:12;;;;;;;0.40;0.40;;;;;;;20.34;68.93;100287.00;5062702;28;20096;-76
2021/08/21 10:56:52;;;;;;;0.68;0.40;;;;;;;20.65;68.99;100286.66;5019632;28;20024;-75
2021/08/21 10:59:53;;;;;;;;;;;;;;;;;;;;;
2021/08/21 11:02:37;;;;;;;0.63;0.63;;;;;;;20.96;68.37;100293.81;4946508;28;20110;-75
2021/08/21 11:06:01;;;;;;;;;;;;;;;;;;;;;
2021/08/21 11:09:00;;;;;;;0.68;0.60;;;;;;;20.87;67.94;100265.28;4983793;28;20118;-75
2021/08/21 11:15:33;;;;;;;;;;;;;;;;;;;;;
2021/08/21 11:18:34;;;;;;;0.50;0.50;;;;;;;21.02;67.91;100286.88;4889947;29;20338;-77
2021/08/21 11:21:51;;;;;;;0.60;0.57;;;;;;;20.84;67.78;100263.19;4959200;28;20061;-74
2021/08/21 11:28:49;;;;;;;;;;;;;;;;;;;;;
2021/08/21 11:35:25;;;;;;;2.15;1.20;;;;;;;20.68;67.96;100279.66;4836199;29;20057;-74
2021/08/21 11:38:16;;;;;;;0.75;0.75;;;;;;;20.55;68.73;100292.59;4970637;28;20039;-74
2021/08/21 11:40:59;;;;;;;1.08;1.05;;;;;;;20.45;68.67;100290.22;4976554;28;20038;-78
2021/08/21 11:43:43;;;;;;;;;;;;;;;;;;;;;
2021/08/21 11:46:14;;;;;;;1.13;0.70;;;;;;;20.37;68.85;100278.84;5060844;28;20104;-77
2021/08/21 11:48:40;;;;;;;1.13;0.90;;;;;;;20.45;68.92;100279.13;5044107;28;20028;-77
2021/08/21 11:51:13;;;;;;;1.48;1.38;;;;;;;20.55;69.13;100278.72;5062197;28;20017;-76
2021/08/21 11:53:40;;;;;;;1.27;1.17;;;;;;;20.80;69.16;100296.38;5038339;28;20033;-77
2021/08/21 11:56:18;;;;;;;1.70;1.45;;;;;;;20.98;69.12;100293.47;5047757;28;20032;-77
2021/08/21 11:58:46;;;;;;;0.73;0.73;;;;;;;21.05;68.81;100288.97;5061012;28;20096;-76
2021/08/21 12:01:14;;;;;;;1.00;1.00;;;;;;;21.02;68.27;100277.75;5058970;28;20036;-77
2021/08/21 12:06:40;;;;;;;1.35;1.25;;;;;;;21.17;68.27;100290.19;5054463;28;20032;-77
2021/08/21 12:09:10;;;;;;;2.08;1.52;;;;;;;21.21;68.59;100285.56;5044887;28;20025;-77
2021/08/21 12:11:38;;;;;;;1.75;0.95;;;;;;;21.30;68.63;100289.06;5055111;28;20034;-77
2021/08/21 12:14:04;;;;;;;1.95;1.55;;;;;;;21.54;68.71;100287.59;5056514;28;20112;-76
2021/08/21 12:16:31;;;;;;;1.10;1.10;;;;;;;21.93;68.90;100282.53;5040012;28;20056;-77
2021/08/21 12:18:57;;;;;;;3.03;1.77;;;;;;;22.74;69.36;100282.72;5022346;28;20035;-76
2021/08/21 12:21:27;;;;;;;1.10;1.00;;;;;;;23.42;67.88;100275.53;5038901;28;20440;-76
2021/08/21 12:23:53;;;;;;;2.63;2.45;;;;;;;24.44;66.69;100287.25;5063355;28;20020;-77
2021/08/21 12:26:34;;;;;;;4.68;2.00;;;;;;;25.31;64.34;100292.78;5039148;28;20080;-75
2021/08/21 12:29:01;;;;;;;1.10;1.10;;;;;;;25.35;62.94;100285.25;5038181;28;20487;-77
2021/08/21 12:31:38;;;;;;;0.80;0.80;;;;;;;25.21;62.53;100283.75;5058354;28;20051;-76
2021/08/21 12:34:05;;;;;;;0.75;0.55;;;;;;;24.88;62.38;100282.31;5038136;28;20025;-75
2021/08/21 12:36:38;;;;;;;4.05;1.13;;;;;;;24.70;62.52;100273.50;5043146;28;20506;-76
2021/08/21 12:39:12;;;;;;;1.10;1.00;;;;;;;24.57;61.93;100274.78;5042210;28;20040;-77
2021/08/21 12:42:36;;;;;;;0.68;0.63;;;;;;;24.51;62.47;100281.84;5057297;28;20082;-75
2021/08/21 12:45:21;;;;;;;1.10;1.10;;;;;;;24.54;61.95;100276.31;5034116;28;20076;-77
2021/08/21 12:47:47;;;;;;;0.98;0.98;;;;;;;24.82;62.37;100266.16;5056689;28;20013;-76
2021/08/21 12:50:14;;;;;;;3.85;1.92;;;;;;;25.17;62.00;100263.28;5038871;28;20044;-76
2021/08/21 12:52:42;;;;;;;0.95;0.95;;;;;;;25.56;61.91;100257.66;5053322;28;20112;-75
2021/08/21 12:55:10;;;;;;;2.38;2.17;;;;;;;25.93;59.30;100264.69;5055230;28;20113;-75
2021/08/21 12:57:37;;;;;;;3.40;3.17;;;;;;;25.86;57.56;100270.16;5049226;28;20033;-78
2021/08/21 13:00:12;;;;;;;2.70;2.50;;;;;;;25.57;56.75;100256.47;5057626;28;20052;-77
2021/08/21 13:02:49;;;;;;;2.05;1.95;;;;;;;25.22;57.32;100267.78;5054204;28;20047;-77
2021/08/21 13:05:18;;;;;;;2.50;2.40;;;;;;;24.72;56.62;100264.75;5059541;28;20052;-76
2021/08/21 13:07:45;;;;;;;1.95;1.85;;;;;;;24.38;58.27;100261.59;5044239;28;20035;-77
2021/08/21 13:10:15;;;;;;;3.58;2.78;;;;;;;24.09;58.57;100265.69;5053814;28;20009;-77
2021/08/21 13:12:42;;;;;;;1.80;1.70;;;;;;;23.80;58.56;100265.78;5059650;28;20261;-76
2021/08/21 13:15:09;;;;;;;2.92;2.72;;;;;;;23.57;59.04;100261.94;5040206;28;20025;-76
2021/08/21 13:17:36;;;;;;;2.17;2.08;;;;;;;23.55;59.71;100253.94;5039899;28;20033;-78
2021/08/21 13:20:03;;;;;;;2.70;2.60;;;;;;;23.56;60.10;100250.00;5041748;28;20029;-77
2021/08/21 13:22:29;;;;;;;2.00;1.90;;;;;;;23.60;60.02;100255.69;5052353;28;20070;-77
2021/08/21 13:24:55;;;;;;;1.77;1.67;;;;;;;23.64;59.75;100256.56;5044741;28;20033;-77
2021/08/21 13:27:20;;;;;;;3.55;2.10;;;;;;;23.66;59.60;100257.81;5044603;28;20120;-76
2021/08/21 13:29:46;;;;;;;3.40;1.40;;;;;;;23.78;60.29;100256.94;5041070;28;20029;-76
2021/08/21 13:32:11;;;;;;;5.28;2.40;;;;;;;23.83;59.57;100270.63;5063130;28;20048;-76
2021/08/21 13:34:37;;;;;;;1.80;1.50;;;;;;;23.79;59.81;100254.97;5063490;28;20458;-76
2021/08/21 13:37:04;;;;;;;1.52;1.48;;;;;;;23.78;59.55;100261.72;5061400;28;20041;-76
2021/08/21 13:39:30;;;;;;;1.65;1.55;;;;;;;23.75;59.92;100266.03;5047148;28;20033;-76
2021/08/21 13:41:55;;;;;;;2.00;1.90;;;;;;;23.77;59.70;100260.91;5070586;28;20033;-76
2021/08/21 13:44:20;;;;;;;2.25;2.05;;;;;;;24.02;60.53;100260.72;5011333;28;20033;-76
2021/08/21 13:46:46;;;;;;;2.08;1.98;;;;;;;24.76;61.34;100260.06;5061432;28;20029;-77
2021/08/21 13:49:13;;;;;;;2.67;2.45;;;;;;;25.78;58.75;100247.63;5034760;28;20095;-75
2021/08/21 13:51:41;;;;;;;2.47;2.38;;;;;;;25.96;55.99;100264.75;5052278;28;20095;-75
2021/08/21 13:54:18;;;;;;;1.35;1.25;;;;;;;25.90;56.23;100257.81;5025049;28;20387;-76
2021/08/21 13:56:43;;;;;;;1.88;1.30;;;;;;;26.11;55.86;100249.00;5045508;28;20079;-77
2021/08/21 13:59:09;;;;;;;1.60;1.50;;;;;;;26.97;55.41;100255.03;5022907;28;20167;-75
2021/08/21 14:01:37;;;;;;;2.10;1.90;;;;;;;27.82;54.25;100255.53;5045003;28;20037;-77
2021/08/21 14:04:02;;;;;;;2.22;2.00;;;;;;;29.48;51.70;100248.78;5043412;28;20596;-77
2021/08/21 14:06:28;;;;;;;1.20;1.20;;;;;;;30.48;48.70;100246.41;5058320;28;20033;-76
2021/08/21 14:09:02;;;;;;;0.70;0.63;;;;;;;30.72;48.79;100241.88;5067045;28;20117;-78